EXS9RJ LGTS-EGCC
Flight info
| Callsign | EXS9RJ |
|---|---|
| Flight time | N/A |
| Altitude | 34000 |
| Route | EDASI N146 BEKVA DCT MAVAR DCT SIMBA DCT MAMOR DCT INBED DCT BOMBI DCT BUB DCT DENUT L610 LAM UN57 WELIN T420 ELVOS |
| Aircraft | A321/M-SDE3FGHIRWY/LB1 |
Departure
| Time | N/A |
|---|---|
| Airport | Thessaloniki Macedonia International Airport (LGTS) |
Arrival
| Time | 2026-05-05 20:31 |
|---|---|
| Airport | Manchester Airport (EGCC) |
| Time | Latitude | Longitude | Altitude | Speed | Heading |
|---|---|---|---|---|---|
| 2026-05-05 17:23 | 41.01192 | 21.57436 | 28285 ft | 405 kts | 310° |
| 2026-05-05 17:23 | 41.03035 | 21.54556 | 28632 ft | 406 kts | 310° |
| 2026-05-05 17:23 | 41.04862 | 21.51704 | 28980 ft | 407 kts | 310° |
| 2026-05-05 17:23 | 41.06699 | 21.48841 | 29283 ft | 408 kts | 310° |
| 2026-05-05 17:24 | 41.08518 | 21.46004 | 29594 ft | 410 kts | 310° |
| 2026-05-05 17:24 | 41.10364 | 21.43119 | 29900 ft | 411 kts | 310° |
| 2026-05-05 17:24 | 41.12216 | 21.40217 | 30197 ft | 413 kts | 310° |
| 2026-05-05 17:24 | 41.14072 | 21.37307 | 30491 ft | 413 kts | 310° |
| 2026-05-05 17:25 | 41.15951 | 21.34358 | 30829 ft | 413 kts | 310° |
| 2026-05-05 17:25 | 41.17171 | 21.32439 | 31147 ft | 409 kts | 310° |
| 2026-05-05 17:25 | 41.19587 | 21.28640 | 31801 ft | 404 kts | 310° |
| 2026-05-05 17:25 | 41.21388 | 21.25806 | 32309 ft | 399 kts | 309° |
| 2026-05-05 17:26 | 41.23166 | 21.23000 | 32817 ft | 395 kts | 309° |
| 2026-05-05 17:26 | 41.24929 | 21.20211 | 33262 ft | 393 kts | 309° |
| 2026-05-05 17:26 | 41.26698 | 21.17405 | 33707 ft | 390 kts | 309° |
| 2026-05-05 17:26 | 41.28408 | 21.14691 | 34147 ft | 386 kts | 309° |
| 2026-05-05 17:27 | 41.30129 | 21.11963 | 34486 ft | 385 kts | 309° |
| 2026-05-05 17:27 | 41.31849 | 21.09238 | 34756 ft | 385 kts | 309° |
| 2026-05-05 17:27 | 41.33569 | 21.06508 | 34992 ft | 385 kts | 309° |
| 2026-05-05 17:27 | 41.35288 | 21.03775 | 35255 ft | 385 kts | 309° |
| 2026-05-05 17:28 | 41.37006 | 21.01043 | 35498 ft | 385 kts | 309° |
| 2026-05-05 17:28 | 41.38729 | 20.98302 | 35731 ft | 386 kts | 309° |
| 2026-05-05 17:28 | 41.40453 | 20.95563 | 35963 ft | 386 kts | 309° |
| 2026-05-05 17:29 | 41.43899 | 20.90077 | 36083 ft | 384 kts | 309° |
| 2026-05-05 17:29 | 41.47313 | 20.84619 | 36076 ft | 383 kts | 309° |
| 2026-05-05 17:30 | 41.50721 | 20.79165 | 36083 ft | 382 kts | 309° |
| 2026-05-05 17:30 | 41.54137 | 20.73688 | 36076 ft | 386 kts | 309° |
| 2026-05-05 17:31 | 41.57573 | 20.68178 | 36085 ft | 386 kts | 309° |
| 2026-05-05 17:31 | 41.61012 | 20.62668 | 36085 ft | 387 kts | 309° |
| 2026-05-05 17:32 | 41.64449 | 20.57138 | 36088 ft | 386 kts | 309° |
| 2026-05-05 17:32 | 41.68117 | 20.51910 | 36091 ft | 388 kts | 320° |
| 2026-05-05 17:33 | 41.72457 | 20.47621 | 36072 ft | 387 kts | 321° |
| 2026-05-05 17:33 | 41.76765 | 20.43356 | 36075 ft | 387 kts | 320° |
| 2026-05-05 17:34 | 41.81120 | 20.39024 | 36082 ft | 388 kts | 321° |
| 2026-05-05 17:34 | 41.85438 | 20.34731 | 36078 ft | 389 kts | 321° |
| 2026-05-05 17:35 | 41.89795 | 20.30390 | 36082 ft | 390 kts | 320° |
| 2026-05-05 17:35 | 41.94153 | 20.26032 | 36085 ft | 390 kts | 321° |
| 2026-05-05 17:36 | 41.98540 | 20.21640 | 36080 ft | 391 kts | 321° |
| 2026-05-05 17:36 | 42.02874 | 20.17305 | 36096 ft | 391 kts | 321° |
| 2026-05-05 17:37 | 42.07248 | 20.12927 | 36071 ft | 392 kts | 320° |
| 2026-05-05 17:37 | 42.11628 | 20.08523 | 36071 ft | 393 kts | 320° |
| 2026-05-05 17:38 | 42.16015 | 20.04101 | 36068 ft | 394 kts | 320° |
| 2026-05-05 17:38 | 42.20409 | 19.99675 | 36066 ft | 394 kts | 320° |
| 2026-05-05 17:39 | 42.24800 | 19.95242 | 36076 ft | 394 kts | 321° |
| 2026-05-05 17:39 | 42.29194 | 19.90795 | 36082 ft | 395 kts | 320° |
| 2026-05-05 17:40 | 42.33587 | 19.86344 | 36070 ft | 395 kts | 321° |
| 2026-05-05 17:40 | 42.37984 | 19.81879 | 36076 ft | 395 kts | 320° |
| 2026-05-05 17:41 | 42.42382 | 19.77401 | 36076 ft | 396 kts | 320° |
| 2026-05-05 17:41 | 42.46782 | 19.72925 | 36070 ft | 395 kts | 320° |
| 2026-05-05 17:42 | 42.51177 | 19.68432 | 36083 ft | 395 kts | 320° |
| 2026-05-05 17:42 | 42.55568 | 19.63928 | 36069 ft | 396 kts | 320° |
| 2026-05-05 17:43 | 42.59978 | 19.59410 | 36068 ft | 397 kts | 320° |
| 2026-05-05 17:43 | 42.64388 | 19.54894 | 36070 ft | 397 kts | 320° |
| 2026-05-05 17:44 | 42.68797 | 19.50357 | 36063 ft | 397 kts | 320° |
| 2026-05-05 17:44 | 42.73203 | 19.45806 | 36056 ft | 398 kts | 320° |
| 2026-05-05 17:45 | 42.77611 | 19.41251 | 36069 ft | 399 kts | 320° |
| 2026-05-05 17:45 | 42.82032 | 19.36686 | 36063 ft | 399 kts | 320° |
| 2026-05-05 17:46 | 42.86461 | 19.32102 | 36067 ft | 400 kts | 320° |
| 2026-05-05 17:46 | 42.90885 | 19.27507 | 36063 ft | 400 kts | 320° |
| 2026-05-05 17:47 | 42.95313 | 19.22903 | 36070 ft | 400 kts | 320° |
| 2026-05-05 17:47 | 42.99743 | 19.18296 | 36071 ft | 400 kts | 320° |
| 2026-05-05 17:48 | 43.04170 | 19.13677 | 36067 ft | 400 kts | 320° |
| 2026-05-05 17:48 | 43.08566 | 19.09088 | 36056 ft | 400 kts | 319° |
| 2026-05-05 17:49 | 43.12993 | 19.04452 | 36052 ft | 401 kts | 319° |
| 2026-05-05 17:49 | 43.17421 | 18.99789 | 36062 ft | 402 kts | 319° |
| 2026-05-05 17:50 | 43.21886 | 18.95092 | 36069 ft | 402 kts | 319° |
| 2026-05-05 17:50 | 43.26296 | 18.90451 | 36066 ft | 402 kts | 319° |
| 2026-05-05 17:51 | 43.30724 | 18.85780 | 36059 ft | 402 kts | 319° |
| 2026-05-05 17:51 | 43.35150 | 18.81104 | 36063 ft | 401 kts | 319° |
| 2026-05-05 17:52 | 43.39562 | 18.76423 | 36051 ft | 401 kts | 319° |
| 2026-05-05 17:52 | 43.43990 | 18.71713 | 36063 ft | 402 kts | 319° |
| 2026-05-05 17:53 | 43.48420 | 18.67003 | 36060 ft | 402 kts | 319° |
| 2026-05-05 17:53 | 43.52846 | 18.62296 | 36059 ft | 402 kts | 319° |
| 2026-05-05 17:54 | 43.57271 | 18.57578 | 36059 ft | 402 kts | 319° |
| 2026-05-05 17:54 | 43.61695 | 18.52835 | 36064 ft | 403 kts | 319° |
| 2026-05-05 17:55 | 43.66124 | 18.48084 | 36063 ft | 403 kts | 319° |
| 2026-05-05 17:55 | 43.70561 | 18.43320 | 36071 ft | 404 kts | 319° |
| 2026-05-05 17:56 | 43.75001 | 18.38538 | 36075 ft | 405 kts | 319° |
| 2026-05-05 17:56 | 43.79442 | 18.33758 | 36074 ft | 404 kts | 319° |
| 2026-05-05 17:57 | 43.83881 | 18.28974 | 36071 ft | 404 kts | 319° |
| 2026-05-05 17:57 | 43.88317 | 18.24183 | 36073 ft | 404 kts | 319° |
| 2026-05-05 17:58 | 43.92750 | 18.19376 | 36082 ft | 405 kts | 319° |
| 2026-05-05 17:58 | 43.97179 | 18.14550 | 36070 ft | 405 kts | 319° |
| 2026-05-05 17:59 | 44.01616 | 18.09716 | 36055 ft | 406 kts | 319° |
| 2026-05-05 17:59 | 44.06057 | 18.04878 | 36049 ft | 406 kts | 319° |
| 2026-05-05 18:00 | 44.10494 | 18.00021 | 36030 ft | 406 kts | 319° |
| 2026-05-05 18:00 | 44.14909 | 17.95195 | 36041 ft | 406 kts | 319° |
| 2026-05-05 18:01 | 44.19353 | 17.90317 | 36044 ft | 407 kts | 319° |
| 2026-05-05 18:01 | 44.23799 | 17.85427 | 36033 ft | 407 kts | 318° |
| 2026-05-05 18:02 | 44.28244 | 17.80529 | 36034 ft | 407 kts | 318° |
| 2026-05-05 18:02 | 44.32693 | 17.75623 | 36012 ft | 407 kts | 318° |
| 2026-05-05 18:03 | 44.37138 | 17.70710 | 36026 ft | 408 kts | 318° |
| 2026-05-05 18:03 | 44.41589 | 17.65782 | 36016 ft | 408 kts | 318° |
| 2026-05-05 18:04 | 44.45315 | 17.61655 | 36020 ft | 408 kts | 318° |
| 2026-05-05 18:04 | 44.49762 | 17.56708 | 36010 ft | 408 kts | 318° |
| 2026-05-05 18:05 | 44.54206 | 17.51746 | 36010 ft | 409 kts | 318° |
| 2026-05-05 18:05 | 44.58647 | 17.46784 | 35987 ft | 408 kts | 318° |
| 2026-05-05 18:06 | 44.63084 | 17.41813 | 36007 ft | 408 kts | 318° |
| 2026-05-05 18:06 | 44.67528 | 17.36832 | 35991 ft | 409 kts | 318° |
| 2026-05-05 18:07 | 44.71978 | 17.31839 | 35989 ft | 410 kts | 318° |
| 2026-05-05 18:07 | 44.76424 | 17.26831 | 35978 ft | 410 kts | 318° |
| 2026-05-05 18:08 | 44.80877 | 17.21797 | 35979 ft | 411 kts | 318° |
| 2026-05-05 18:08 | 44.85340 | 17.16765 | 35980 ft | 411 kts | 318° |
| 2026-05-05 18:09 | 44.89802 | 17.11715 | 35991 ft | 412 kts | 318° |
| 2026-05-05 18:09 | 44.94268 | 17.06648 | 35986 ft | 412 kts | 318° |
| 2026-05-05 18:10 | 44.98707 | 17.01612 | 35985 ft | 413 kts | 318° |
| 2026-05-05 18:10 | 45.03181 | 16.96518 | 35978 ft | 413 kts | 317° |
| 2026-05-05 18:11 | 45.07653 | 16.91402 | 35977 ft | 414 kts | 317° |
| 2026-05-05 18:11 | 45.12128 | 16.86282 | 35982 ft | 414 kts | 317° |
| 2026-05-05 18:12 | 45.16605 | 16.81146 | 35981 ft | 415 kts | 317° |
| 2026-05-05 18:12 | 45.21095 | 16.75990 | 35982 ft | 415 kts | 317° |
| 2026-05-05 18:13 | 45.25578 | 16.70824 | 35973 ft | 416 kts | 317° |
| 2026-05-05 18:13 | 45.30069 | 16.65637 | 35974 ft | 416 kts | 317° |
| 2026-05-05 18:14 | 45.34563 | 16.60444 | 35975 ft | 416 kts | 317° |
| 2026-05-05 18:14 | 45.39058 | 16.55249 | 35988 ft | 416 kts | 317° |
| 2026-05-05 18:15 | 45.43545 | 16.50041 | 35981 ft | 417 kts | 317° |
| 2026-05-05 18:15 | 45.48038 | 16.44810 | 35972 ft | 417 kts | 317° |
| 2026-05-05 18:16 | 45.52533 | 16.39564 | 35977 ft | 417 kts | 317° |
| 2026-05-05 18:16 | 45.57024 | 16.34309 | 35974 ft | 418 kts | 317° |
| 2026-05-05 18:17 | 45.61522 | 16.29038 | 35978 ft | 418 kts | 317° |
| 2026-05-05 18:17 | 45.66021 | 16.23764 | 35984 ft | 418 kts | 317° |
| 2026-05-05 18:18 | 45.70522 | 16.18465 | 35957 ft | 420 kts | 317° |
| 2026-05-05 18:18 | 45.75035 | 16.13142 | 35957 ft | 420 kts | 317° |
| 2026-05-05 18:19 | 45.79557 | 16.07810 | 35958 ft | 421 kts | 317° |
| 2026-05-05 18:19 | 45.84080 | 16.02460 | 35967 ft | 422 kts | 317° |
| 2026-05-05 18:20 | 45.88594 | 15.97100 | 35974 ft | 421 kts | 317° |
| 2026-05-05 18:20 | 45.93109 | 15.91719 | 35953 ft | 423 kts | 317° |
| 2026-05-05 18:21 | 45.97649 | 15.86293 | 35946 ft | 426 kts | 317° |
| 2026-05-05 18:21 | 46.02181 | 15.80891 | 35949 ft | 426 kts | 317° |
| 2026-05-05 18:22 | 46.06750 | 15.75443 | 35949 ft | 427 kts | 317° |
| 2026-05-05 18:22 | 46.11322 | 15.69956 | 35959 ft | 428 kts | 317° |
| 2026-05-05 18:23 | 46.15893 | 15.64453 | 35959 ft | 428 kts | 317° |
| 2026-05-05 18:23 | 46.20459 | 15.58948 | 35953 ft | 428 kts | 317° |
| 2026-05-05 18:24 | 46.25027 | 15.53429 | 35944 ft | 428 kts | 317° |
| 2026-05-05 18:24 | 46.29593 | 15.47903 | 35942 ft | 428 kts | 317° |
| 2026-05-05 18:25 | 46.34156 | 15.42375 | 35939 ft | 428 kts | 317° |
| 2026-05-05 18:25 | 46.38718 | 15.36826 | 35936 ft | 429 kts | 316° |
| 2026-05-05 18:26 | 46.43284 | 15.31249 | 35929 ft | 430 kts | 316° |
| 2026-05-05 18:26 | 46.47858 | 15.25664 | 35928 ft | 430 kts | 317° |
| 2026-05-05 18:27 | 46.52437 | 15.20069 | 35927 ft | 431 kts | 317° |
| 2026-05-05 18:27 | 46.57017 | 15.14450 | 35925 ft | 431 kts | 317° |
| 2026-05-05 18:28 | 46.63882 | 15.06011 | 35917 ft | 431 kts | 316° |
| 2026-05-05 18:28 | 46.68459 | 15.00370 | 35922 ft | 431 kts | 316° |
| 2026-05-05 18:29 | 46.73032 | 14.94707 | 35922 ft | 432 kts | 316° |
| 2026-05-05 18:29 | 46.77608 | 14.89039 | 35911 ft | 432 kts | 316° |
| 2026-05-05 18:30 | 46.82183 | 14.83354 | 35907 ft | 432 kts | 316° |
| 2026-05-05 18:30 | 46.86759 | 14.77654 | 35910 ft | 433 kts | 316° |
| 2026-05-05 18:31 | 46.91341 | 14.71937 | 35899 ft | 433 kts | 316° |
| 2026-05-05 18:31 | 46.95923 | 14.66196 | 35905 ft | 434 kts | 316° |
| 2026-05-05 18:32 | 47.00482 | 14.60477 | 35896 ft | 435 kts | 316° |
| 2026-05-05 18:32 | 47.05104 | 14.54669 | 35897 ft | 435 kts | 316° |
| 2026-05-05 18:33 | 47.09667 | 14.48923 | 35909 ft | 435 kts | 316° |
| 2026-05-05 18:33 | 47.14253 | 14.43118 | 35887 ft | 435 kts | 316° |
| 2026-05-05 18:34 | 47.18841 | 14.37303 | 35883 ft | 436 kts | 316° |
| 2026-05-05 18:34 | 47.23429 | 14.31490 | 35876 ft | 436 kts | 316° |
| 2026-05-05 18:35 | 47.28015 | 14.25661 | 35868 ft | 435 kts | 316° |
| 2026-05-05 18:35 | 47.32598 | 14.19815 | 35861 ft | 436 kts | 316° |
| 2026-05-05 18:36 | 47.37177 | 14.13955 | 35853 ft | 437 kts | 315° |
| 2026-05-05 18:36 | 47.41761 | 14.08085 | 35841 ft | 436 kts | 315° |
| 2026-05-05 18:37 | 47.46344 | 14.02204 | 35824 ft | 436 kts | 315° |
| 2026-05-05 18:37 | 47.50929 | 13.96295 | 35830 ft | 437 kts | 315° |
| 2026-05-05 18:38 | 47.55507 | 13.90387 | 35831 ft | 436 kts | 315° |
| 2026-05-05 18:38 | 47.60091 | 13.84470 | 35819 ft | 438 kts | 315° |
| 2026-05-05 18:39 | 47.64680 | 13.78530 | 35809 ft | 438 kts | 315° |
| 2026-05-05 18:39 | 47.69265 | 13.72564 | 35800 ft | 439 kts | 315° |
| 2026-05-05 18:40 | 47.73850 | 13.66585 | 35798 ft | 439 kts | 315° |
| 2026-05-05 18:40 | 47.78430 | 13.60595 | 35787 ft | 439 kts | 315° |
| 2026-05-05 18:41 | 47.83015 | 13.54596 | 35799 ft | 439 kts | 314° |
| 2026-05-05 18:41 | 47.87604 | 13.48569 | 35790 ft | 440 kts | 314° |
| 2026-05-05 18:42 | 47.92193 | 13.42528 | 35796 ft | 440 kts | 315° |
| 2026-05-05 18:42 | 47.96784 | 13.36476 | 35785 ft | 441 kts | 314° |
| 2026-05-05 18:43 | 48.01375 | 13.30400 | 35794 ft | 441 kts | 314° |
| 2026-05-05 18:43 | 48.05935 | 13.24354 | 35793 ft | 442 kts | 314° |
| 2026-05-05 18:44 | 48.10499 | 13.18298 | 35781 ft | 443 kts | 314° |
| 2026-05-05 18:44 | 48.15130 | 13.12132 | 35794 ft | 443 kts | 314° |
| 2026-05-05 18:45 | 48.19736 | 13.05975 | 35795 ft | 444 kts | 314° |
| 2026-05-05 18:45 | 48.24351 | 12.99829 | 35797 ft | 445 kts | 315° |
| 2026-05-05 18:46 | 48.29183 | 12.93986 | 35817 ft | 447 kts | 317° |
| 2026-05-05 18:46 | 48.34116 | 12.88276 | 35796 ft | 448 kts | 317° |
| 2026-05-05 18:47 | 48.39030 | 12.82501 | 35792 ft | 449 kts | 317° |
| 2026-05-05 18:47 | 48.43909 | 12.76633 | 35788 ft | 449 kts | 316° |
| 2026-05-05 18:48 | 48.48780 | 12.70728 | 35785 ft | 449 kts | 316° |
| 2026-05-05 18:48 | 48.53651 | 12.64827 | 35795 ft | 449 kts | 316° |
| 2026-05-05 18:49 | 48.58530 | 12.58926 | 35796 ft | 450 kts | 316° |
| 2026-05-05 18:49 | 48.63413 | 12.53011 | 35807 ft | 450 kts | 316° |
| 2026-05-05 18:50 | 48.68296 | 12.47097 | 35799 ft | 450 kts | 316° |
| 2026-05-05 18:50 | 48.72349 | 12.42164 | 35810 ft | 450 kts | 316° |
| 2026-05-05 18:51 | 48.77217 | 12.36198 | 35809 ft | 450 kts | 316° |
| 2026-05-05 18:51 | 48.82075 | 12.30226 | 35832 ft | 450 kts | 316° |
| 2026-05-05 18:52 | 48.86915 | 12.24178 | 35806 ft | 449 kts | 311° |
| 2026-05-05 18:52 | 48.90731 | 12.16861 | 35804 ft | 439 kts | 296° |
| 2026-05-05 18:53 | 48.93894 | 12.08907 | 35802 ft | 440 kts | 296° |
| 2026-05-05 18:53 | 48.97073 | 12.00940 | 35801 ft | 441 kts | 296° |
| 2026-05-05 18:54 | 49.00256 | 11.92969 | 35825 ft | 441 kts | 296° |
| 2026-05-05 18:54 | 49.03430 | 11.84969 | 35802 ft | 442 kts | 296° |
| 2026-05-05 18:55 | 49.06601 | 11.76931 | 35795 ft | 443 kts | 296° |
| 2026-05-05 18:55 | 49.09777 | 11.68871 | 35796 ft | 444 kts | 296° |
| 2026-05-05 18:56 | 49.12955 | 11.60769 | 35799 ft | 444 kts | 296° |
| 2026-05-05 18:56 | 49.16121 | 11.52684 | 35821 ft | 445 kts | 296° |
| 2026-05-05 18:57 | 49.19270 | 11.44610 | 35804 ft | 446 kts | 296° |
| 2026-05-05 18:57 | 49.22449 | 11.36450 | 35813 ft | 447 kts | 296° |
| 2026-05-05 18:58 | 49.25631 | 11.28262 | 35812 ft | 448 kts | 296° |
| 2026-05-05 18:58 | 49.28808 | 11.20053 | 35814 ft | 448 kts | 296° |
| 2026-05-05 18:59 | 49.31981 | 11.11805 | 35991 ft | 452 kts | 297° |
| 2026-05-05 18:59 | 49.33578 | 11.07647 | 36270 ft | 452 kts | 296° |
| 2026-05-05 18:59 | 49.35170 | 11.03504 | 36557 ft | 451 kts | 296° |
| 2026-05-05 19:00 | 49.36757 | 10.99365 | 36827 ft | 450 kts | 296° |
| 2026-05-05 19:00 | 49.38336 | 10.95228 | 37095 ft | 449 kts | 296° |
| 2026-05-05 19:00 | 49.39859 | 10.91051 | 37369 ft | 447 kts | 294° |
| 2026-05-05 19:00 | 49.41289 | 10.86814 | 37626 ft | 446 kts | 292° |
| 2026-05-05 19:01 | 49.42627 | 10.82536 | 37813 ft | 445 kts | 290° |
| 2026-05-05 19:01 | 49.43896 | 10.78206 | 37847 ft | 444 kts | 289° |
| 2026-05-05 19:01 | 49.46348 | 10.69505 | 37859 ft | 444 kts | 289° |
| 2026-05-05 19:02 | 49.48825 | 10.60811 | 37838 ft | 444 kts | 290° |
| 2026-05-05 19:02 | 49.51346 | 10.52136 | 37839 ft | 444 kts | 290° |
| 2026-05-05 19:03 | 49.53878 | 10.43458 | 37847 ft | 445 kts | 290° |
| 2026-05-05 19:03 | 49.56389 | 10.34763 | 37863 ft | 444 kts | 290° |
| 2026-05-05 19:04 | 49.58893 | 10.26049 | 37847 ft | 445 kts | 290° |
| 2026-05-05 19:04 | 49.61397 | 10.17314 | 37839 ft | 446 kts | 290° |
| 2026-05-05 19:05 | 49.63892 | 10.08560 | 37834 ft | 445 kts | 290° |
| 2026-05-05 19:05 | 49.66377 | 9.99806 | 37823 ft | 445 kts | 289° |
| 2026-05-05 19:06 | 49.68847 | 9.91096 | 37859 ft | 446 kts | 290° |
| 2026-05-05 19:06 | 49.71333 | 9.82313 | 37854 ft | 446 kts | 290° |
| 2026-05-05 19:07 | 49.73814 | 9.73522 | 37847 ft | 447 kts | 290° |
| 2026-05-05 19:07 | 49.76283 | 9.64704 | 37844 ft | 447 kts | 290° |
| 2026-05-05 19:08 | 49.78744 | 9.55870 | 37831 ft | 447 kts | 289° |
| 2026-05-05 19:08 | 49.81208 | 9.47032 | 37846 ft | 448 kts | 290° |
| 2026-05-05 19:09 | 49.83671 | 9.38165 | 37836 ft | 448 kts | 290° |
| 2026-05-05 19:09 | 49.86118 | 9.29290 | 37831 ft | 448 kts | 289° |
| 2026-05-05 19:10 | 49.88554 | 9.20401 | 37827 ft | 448 kts | 289° |
| 2026-05-05 19:10 | 49.90992 | 9.11494 | 37839 ft | 448 kts | 289° |
| 2026-05-05 19:11 | 49.93432 | 9.02588 | 37841 ft | 449 kts | 290° |
| 2026-05-05 19:11 | 49.95862 | 8.93662 | 37830 ft | 449 kts | 289° |
| 2026-05-05 19:12 | 49.98275 | 8.84712 | 37826 ft | 449 kts | 289° |
| 2026-05-05 19:12 | 50.00656 | 8.75853 | 37820 ft | 450 kts | 289° |
| 2026-05-05 19:13 | 50.03073 | 8.66880 | 37815 ft | 450 kts | 289° |
| 2026-05-05 19:13 | 50.05473 | 8.57973 | 37817 ft | 449 kts | 289° |
| 2026-05-05 19:14 | 50.07864 | 8.49004 | 37815 ft | 449 kts | 289° |
| 2026-05-05 19:14 | 50.10243 | 8.40027 | 37843 ft | 448 kts | 289° |
| 2026-05-05 19:15 | 50.12623 | 8.31053 | 37845 ft | 448 kts | 289° |
| 2026-05-05 19:15 | 50.15002 | 8.22048 | 37868 ft | 449 kts | 289° |
| 2026-05-05 19:16 | 50.17373 | 8.13037 | 37851 ft | 449 kts | 289° |
| 2026-05-05 19:16 | 50.19732 | 8.04018 | 37840 ft | 449 kts | 289° |
| 2026-05-05 19:17 | 50.22091 | 7.94991 | 37835 ft | 449 kts | 289° |
| 2026-05-05 19:17 | 50.24437 | 7.85962 | 37823 ft | 449 kts | 289° |
| 2026-05-05 19:18 | 50.26771 | 7.76932 | 37834 ft | 448 kts | 289° |
| 2026-05-05 19:18 | 50.29099 | 7.67895 | 37826 ft | 448 kts | 289° |
| 2026-05-05 19:19 | 50.31427 | 7.58843 | 37818 ft | 448 kts | 289° |
| 2026-05-05 19:19 | 50.33742 | 7.49792 | 37809 ft | 448 kts | 289° |
| 2026-05-05 19:20 | 50.36051 | 7.40720 | 37810 ft | 448 kts | 289° |
| 2026-05-05 19:20 | 50.38351 | 7.31634 | 37810 ft | 449 kts | 289° |
| 2026-05-05 19:21 | 50.40645 | 7.22547 | 37811 ft | 449 kts | 289° |
| 2026-05-05 19:21 | 50.42943 | 7.13444 | 37815 ft | 449 kts | 289° |
| 2026-05-05 19:22 | 50.45230 | 7.04334 | 37819 ft | 449 kts | 288° |
| 2026-05-05 19:22 | 50.47502 | 6.95199 | 37820 ft | 449 kts | 288° |
| 2026-05-05 19:23 | 50.49781 | 6.86016 | 37819 ft | 450 kts | 288° |
| 2026-05-05 19:23 | 50.52042 | 6.76900 | 37816 ft | 449 kts | 288° |
| 2026-05-05 19:24 | 50.54285 | 6.67800 | 37819 ft | 450 kts | 288° |
| 2026-05-05 19:24 | 50.56540 | 6.58619 | 37819 ft | 450 kts | 288° |
| 2026-05-05 19:25 | 50.58799 | 6.49378 | 37836 ft | 450 kts | 288° |
| 2026-05-05 19:25 | 50.61031 | 6.40188 | 37836 ft | 450 kts | 288° |
| 2026-05-05 19:26 | 50.63267 | 6.30986 | 37837 ft | 450 kts | 288° |
| 2026-05-05 19:26 | 50.65488 | 6.21775 | 37841 ft | 450 kts | 288° |
| 2026-05-05 19:27 | 50.67692 | 6.12603 | 37852 ft | 451 kts | 288° |
| 2026-05-05 19:27 | 50.69902 | 6.03361 | 37858 ft | 450 kts | 288° |
| 2026-05-05 19:28 | 50.72114 | 5.94105 | 37863 ft | 451 kts | 288° |
| 2026-05-05 19:28 | 50.74314 | 5.84844 | 37870 ft | 451 kts | 288° |
| 2026-05-05 19:29 | 50.76499 | 5.75576 | 37877 ft | 450 kts | 288° |
| 2026-05-05 19:29 | 50.78678 | 5.66300 | 37877 ft | 450 kts | 288° |
| 2026-05-05 19:30 | 50.80851 | 5.57037 | 37887 ft | 449 kts | 288° |
| 2026-05-05 19:30 | 50.83017 | 5.47771 | 37883 ft | 449 kts | 288° |
| 2026-05-05 19:31 | 50.85173 | 5.38501 | 37885 ft | 449 kts | 288° |
| 2026-05-05 19:31 | 50.87320 | 5.29223 | 37884 ft | 449 kts | 287° |
| 2026-05-05 19:32 | 50.89459 | 5.19942 | 37881 ft | 449 kts | 287° |
| 2026-05-05 19:32 | 50.91583 | 5.10645 | 37889 ft | 448 kts | 287° |
| 2026-05-05 19:33 | 50.93705 | 5.01345 | 37882 ft | 449 kts | 287° |
| 2026-05-05 19:33 | 50.95819 | 4.92031 | 37889 ft | 449 kts | 287° |
| 2026-05-05 19:34 | 50.97929 | 4.82700 | 37890 ft | 449 kts | 287° |
| 2026-05-05 19:35 | 51.01087 | 4.68701 | 37912 ft | 449 kts | 287° |
| 2026-05-05 19:35 | 51.03182 | 4.59353 | 37904 ft | 449 kts | 287° |
| 2026-05-05 19:36 | 51.05261 | 4.50010 | 37899 ft | 449 kts | 287° |
| 2026-05-05 19:36 | 51.07338 | 4.40648 | 37895 ft | 449 kts | 287° |
| 2026-05-05 19:37 | 51.09402 | 4.31286 | 37897 ft | 448 kts | 287° |
| 2026-05-05 19:37 | 51.11458 | 4.21921 | 37893 ft | 448 kts | 287° |
| 2026-05-05 19:38 | 51.13491 | 4.12605 | 37894 ft | 449 kts | 287° |
| 2026-05-05 19:38 | 51.15544 | 4.03207 | 37897 ft | 449 kts | 287° |
| 2026-05-05 19:39 | 51.17601 | 3.93813 | 37891 ft | 449 kts | 287° |
| 2026-05-05 19:39 | 51.19312 | 3.85929 | 37889 ft | 449 kts | 287° |
| 2026-05-05 19:40 | 51.21319 | 3.76577 | 37901 ft | 449 kts | 287° |
| 2026-05-05 19:40 | 51.23329 | 3.67149 | 37898 ft | 449 kts | 285° |
| 2026-05-05 19:41 | 51.24735 | 3.57427 | 37901 ft | 447 kts | 279° |
| 2026-05-05 19:41 | 51.26006 | 3.47728 | 37899 ft | 446 kts | 279° |
| 2026-05-05 19:42 | 51.27277 | 3.38027 | 37910 ft | 446 kts | 279° |
| 2026-05-05 19:42 | 51.28540 | 3.28314 | 37925 ft | 447 kts | 279° |
| 2026-05-05 19:43 | 51.29775 | 3.18670 | 37938 ft | 446 kts | 279° |
| 2026-05-05 19:43 | 51.31002 | 3.08980 | 37939 ft | 444 kts | 279° |
| 2026-05-05 19:44 | 51.32219 | 2.99297 | 37935 ft | 444 kts | 278° |
| 2026-05-05 19:44 | 51.33425 | 2.89637 | 37934 ft | 443 kts | 278° |
| 2026-05-05 19:45 | 51.34626 | 2.79971 | 37944 ft | 443 kts | 279° |
| 2026-05-05 19:45 | 51.35829 | 2.70306 | 37940 ft | 443 kts | 278° |
| 2026-05-05 19:46 | 51.37016 | 2.60643 | 37942 ft | 442 kts | 278° |
| 2026-05-05 19:46 | 51.38199 | 2.50979 | 37943 ft | 442 kts | 278° |
| 2026-05-05 19:47 | 51.39375 | 2.41332 | 37942 ft | 442 kts | 278° |
| 2026-05-05 19:47 | 51.40536 | 2.31672 | 37950 ft | 442 kts | 278° |
| 2026-05-05 19:48 | 51.41690 | 2.22020 | 37949 ft | 441 kts | 279° |
| 2026-05-05 19:48 | 51.42877 | 2.12358 | 37941 ft | 442 kts | 278° |
| 2026-05-05 19:49 | 51.44058 | 2.02690 | 37945 ft | 442 kts | 278° |
| 2026-05-05 19:49 | 51.45214 | 1.93021 | 37947 ft | 441 kts | 277° |
| 2026-05-05 19:50 | 51.46342 | 1.83338 | 37944 ft | 442 kts | 278° |
| 2026-05-05 19:50 | 51.47466 | 1.73636 | 37942 ft | 443 kts | 278° |
| 2026-05-05 19:51 | 51.48580 | 1.63907 | 37946 ft | 443 kts | 278° |
| 2026-05-05 19:51 | 51.49686 | 1.54172 | 37949 ft | 444 kts | 278° |
| 2026-05-05 19:52 | 51.50794 | 1.44428 | 37952 ft | 444 kts | 278° |
| 2026-05-05 19:52 | 51.51887 | 1.34673 | 37963 ft | 444 kts | 278° |
| 2026-05-05 19:53 | 51.52967 | 1.24912 | 37963 ft | 444 kts | 278° |
| 2026-05-05 19:53 | 51.54043 | 1.15134 | 37965 ft | 445 kts | 278° |
| 2026-05-05 19:54 | 51.55120 | 1.05347 | 37969 ft | 445 kts | 278° |
| 2026-05-05 19:54 | 51.56179 | 0.95564 | 37983 ft | 445 kts | 278° |
| 2026-05-05 19:55 | 51.57237 | 0.85774 | 37999 ft | 444 kts | 278° |
| 2026-05-05 19:55 | 51.58285 | 0.75996 | 37998 ft | 444 kts | 278° |
| 2026-05-05 19:56 | 51.59318 | 0.66220 | 38000 ft | 443 kts | 278° |
| 2026-05-05 19:56 | 51.60345 | 0.56451 | 37993 ft | 443 kts | 278° |
| 2026-05-05 19:57 | 51.61357 | 0.46749 | 37988 ft | 443 kts | 278° |
| 2026-05-05 19:57 | 51.62365 | 0.36986 | 37985 ft | 442 kts | 277° |
| 2026-05-05 19:58 | 51.63365 | 0.27228 | 37991 ft | 442 kts | 277° |
| 2026-05-05 19:58 | 51.64831 | 0.17636 | 37982 ft | 444 kts | 292° |
| 2026-05-05 19:59 | 51.68194 | 0.09293 | 37979 ft | 449 kts | 312° |
| 2026-05-05 19:59 | 51.72578 | 0.02115 | 37990 ft | 450 kts | 312° |
| 2026-05-05 20:00 | 51.76947 | -0.05105 | 38021 ft | 449 kts | 312° |
| 2026-05-05 20:00 | 51.81310 | -0.12335 | 38032 ft | 449 kts | 312° |
| 2026-05-05 20:01 | 51.85666 | -0.19556 | 37999 ft | 448 kts | 312° |
| 2026-05-05 20:01 | 51.90005 | -0.26756 | 38002 ft | 446 kts | 312° |
| 2026-05-05 20:02 | 51.94322 | -0.33944 | 37968 ft | 444 kts | 312° |
| 2026-05-05 20:02 | 51.96475 | -0.37539 | 37684 ft | 443 kts | 312° |
| 2026-05-05 20:02 | 51.98612 | -0.41106 | 37144 ft | 441 kts | 312° |
| 2026-05-05 20:02 | 52.00747 | -0.44678 | 36561 ft | 440 kts | 312° |
| 2026-05-05 20:03 | 52.02874 | -0.48243 | 35930 ft | 439 kts | 311° |
| 2026-05-05 20:03 | 52.05000 | -0.51826 | 35145 ft | 444 kts | 311° |
| 2026-05-05 20:03 | 52.07157 | -0.55476 | 34293 ft | 450 kts | 311° |
| 2026-05-05 20:03 | 52.09338 | -0.59168 | 33350 ft | 456 kts | 311° |
| 2026-05-05 20:04 | 52.11530 | -0.62862 | 32874 ft | 450 kts | 311° |
| 2026-05-05 20:04 | 52.13698 | -0.66511 | 32291 ft | 447 kts | 311° |
| 2026-05-05 20:04 | 52.15851 | -0.70146 | 31721 ft | 444 kts | 310° |
| 2026-05-05 20:04 | 52.17977 | -0.73749 | 31175 ft | 439 kts | 310° |
| 2026-05-05 20:05 | 52.20082 | -0.77327 | 30605 ft | 436 kts | 310° |
| 2026-05-05 20:05 | 52.22173 | -0.80885 | 30064 ft | 433 kts | 310° |
| 2026-05-05 20:05 | 52.24268 | -0.84292 | 29463 ft | 431 kts | 316° |
| 2026-05-05 20:05 | 52.26680 | -0.87177 | 28934 ft | 430 kts | 325° |
| 2026-05-05 20:06 | 52.29226 | -0.89692 | 28391 ft | 425 kts | 325° |
| 2026-05-05 20:06 | 52.31744 | -0.92183 | 27844 ft | 421 kts | 325° |
| 2026-05-05 20:06 | 52.34231 | -0.94653 | 27340 ft | 417 kts | 325° |
| 2026-05-05 20:06 | 52.36694 | -0.97113 | 26821 ft | 412 kts | 325° |
| 2026-05-05 20:07 | 52.39129 | -0.99550 | 26352 ft | 408 kts | 325° |
| 2026-05-05 20:07 | 52.41537 | -1.01962 | 25840 ft | 404 kts | 326° |
| 2026-05-05 20:07 | 52.43921 | -1.04353 | 25383 ft | 399 kts | 326° |
| 2026-05-05 20:07 | 52.46267 | -1.06711 | 24920 ft | 394 kts | 326° |
| 2026-05-05 20:08 | 52.48593 | -1.09052 | 24469 ft | 390 kts | 326° |
| 2026-05-05 20:08 | 52.50889 | -1.11362 | 24027 ft | 385 kts | 326° |
| 2026-05-05 20:08 | 52.53162 | -1.13645 | 23575 ft | 381 kts | 326° |
| 2026-05-05 20:08 | 52.55414 | -1.15907 | 23066 ft | 377 kts | 326° |
| 2026-05-05 20:09 | 52.57630 | -1.18138 | 22619 ft | 371 kts | 326° |
| 2026-05-05 20:09 | 52.59814 | -1.20343 | 22174 ft | 366 kts | 326° |
| 2026-05-05 20:09 | 52.61976 | -1.22526 | 21731 ft | 362 kts | 326° |
| 2026-05-05 20:09 | 52.64110 | -1.24686 | 21284 ft | 358 kts | 326° |
| 2026-05-05 20:10 | 52.66223 | -1.26830 | 20838 ft | 355 kts | 326° |
| 2026-05-05 20:10 | 52.68315 | -1.28956 | 20387 ft | 352 kts | 326° |
| 2026-05-05 20:10 | 52.70395 | -1.31067 | 19942 ft | 349 kts | 326° |
| 2026-05-05 20:10 | 52.72469 | -1.33168 | 19484 ft | 352 kts | 326° |
| 2026-05-05 20:11 | 52.74550 | -1.35284 | 19046 ft | 351 kts | 326° |
| 2026-05-05 20:11 | 52.76624 | -1.37400 | 18610 ft | 349 kts | 326° |
| 2026-05-05 20:11 | 52.78686 | -1.39506 | 18124 ft | 347 kts | 326° |
| 2026-05-05 20:11 | 52.80731 | -1.41596 | 17667 ft | 344 kts | 326° |
| 2026-05-05 20:12 | 52.82754 | -1.43668 | 17236 ft | 340 kts | 326° |
| 2026-05-05 20:12 | 52.84756 | -1.45718 | 16809 ft | 337 kts | 326° |
| 2026-05-05 20:12 | 52.86743 | -1.47754 | 16376 ft | 335 kts | 326° |
| 2026-05-05 20:12 | 52.88718 | -1.49778 | 15951 ft | 333 kts | 326° |
| 2026-05-05 20:13 | 52.90677 | -1.51790 | 15525 ft | 330 kts | 327° |
| 2026-05-05 20:13 | 52.92621 | -1.53788 | 15107 ft | 327 kts | 327° |
| 2026-05-05 20:13 | 52.94550 | -1.55771 | 14690 ft | 325 kts | 327° |
| 2026-05-05 20:13 | 52.96459 | -1.57737 | 14280 ft | 322 kts | 327° |
| 2026-05-05 20:14 | 52.98355 | -1.59696 | 13873 ft | 320 kts | 327° |
| 2026-05-05 20:14 | 53.00236 | -1.61645 | 13436 ft | 318 kts | 327° |
| 2026-05-05 20:14 | 53.02105 | -1.63585 | 13015 ft | 315 kts | 326° |
| 2026-05-05 20:14 | 53.03952 | -1.65503 | 12622 ft | 312 kts | 327° |
| 2026-05-05 20:15 | 53.05666 | -1.67652 | 12234 ft | 307 kts | 316° |
| 2026-05-05 20:15 | 53.07093 | -1.70274 | 11848 ft | 306 kts | 310° |
| 2026-05-05 20:15 | 53.08460 | -1.72933 | 11628 ft | 297 kts | 310° |
| 2026-05-05 20:15 | 53.09777 | -1.75488 | 11484 ft | 285 kts | 310° |
| 2026-05-05 20:16 | 53.11056 | -1.77969 | 11386 ft | 282 kts | 311° |
| 2026-05-05 20:16 | 53.12335 | -1.80448 | 10980 ft | 282 kts | 311° |
| 2026-05-05 20:16 | 53.13606 | -1.82914 | 10619 ft | 279 kts | 311° |
| 2026-05-05 20:16 | 53.14877 | -1.85381 | 10162 ft | 281 kts | 311° |
| 2026-05-05 20:17 | 53.16139 | -1.87842 | 9767 ft | 280 kts | 311° |
| 2026-05-05 20:17 | 53.17405 | -1.90309 | 9335 ft | 279 kts | 311° |
| 2026-05-05 20:17 | 53.18660 | -1.92758 | 8912 ft | 278 kts | 311° |
| 2026-05-05 20:17 | 53.19899 | -1.95181 | 8607 ft | 272 kts | 311° |
| 2026-05-05 20:18 | 53.21117 | -1.97570 | 8291 ft | 266 kts | 310° |
| 2026-05-05 20:18 | 53.22290 | -1.99866 | 8186 ft | 254 kts | 311° |
| 2026-05-05 20:18 | 53.23222 | -2.02257 | 8076 ft | 242 kts | 289° |
| 2026-05-05 20:18 | 53.23342 | -2.04976 | 7974 ft | 234 kts | 262° |
| 2026-05-05 20:19 | 53.23065 | -2.07632 | 7863 ft | 231 kts | 261° |
| 2026-05-05 20:19 | 53.22748 | -2.10263 | 7760 ft | 232 kts | 260° |
| 2026-05-05 20:19 | 53.22441 | -2.12915 | 7574 ft | 234 kts | 261° |
| 2026-05-05 20:19 | 53.22134 | -2.15591 | 7193 ft | 236 kts | 260° |
| 2026-05-05 20:20 | 53.21830 | -2.18288 | 6822 ft | 238 kts | 260° |
| 2026-05-05 20:20 | 53.21534 | -2.20969 | 6454 ft | 238 kts | 260° |
| 2026-05-05 20:20 | 53.21241 | -2.23708 | 6057 ft | 241 kts | 261° |
| 2026-05-05 20:20 | 53.20951 | -2.26467 | 5663 ft | 243 kts | 261° |
| 2026-05-05 20:21 | 53.20659 | -2.29258 | 5253 ft | 245 kts | 260° |
| 2026-05-05 20:21 | 53.20370 | -2.32060 | 4885 ft | 246 kts | 260° |
| 2026-05-05 20:21 | 53.20006 | -2.34850 | 4492 ft | 247 kts | 254° |
| 2026-05-05 20:21 | 53.19383 | -2.37523 | 4133 ft | 246 kts | 241° |
| 2026-05-05 20:22 | 53.18438 | -2.39846 | 3933 ft | 239 kts | 231° |
| 2026-05-05 20:22 | 53.17427 | -2.42005 | 3727 ft | 233 kts | 230° |
| 2026-05-05 20:22 | 53.16430 | -2.44109 | 3606 ft | 231 kts | 230° |
| 2026-05-05 20:22 | 53.15436 | -2.46210 | 3480 ft | 231 kts | 230° |
| 2026-05-05 20:23 | 53.14439 | -2.48309 | 3346 ft | 231 kts | 230° |
| 2026-05-05 20:23 | 53.13446 | -2.50407 | 3218 ft | 231 kts | 230° |
| 2026-05-05 20:23 | 53.12450 | -2.52504 | 3096 ft | 230 kts | 230° |
| 2026-05-05 20:23 | 53.11552 | -2.54705 | 2983 ft | 231 kts | 250° |
| 2026-05-05 20:24 | 53.11400 | -2.57280 | 2995 ft | 223 kts | 286° |
| 2026-05-05 20:24 | 53.12112 | -2.59473 | 2996 ft | 215 kts | 321° |
| 2026-05-05 20:24 | 53.13408 | -2.60560 | 3002 ft | 209 kts | 353° |
| 2026-05-05 20:24 | 53.14854 | -2.60808 | 3001 ft | 210 kts | 359° |
| 2026-05-05 20:25 | 53.16318 | -2.60907 | 2999 ft | 210 kts | 0° |
| 2026-05-05 20:25 | 53.17775 | -2.60994 | 2999 ft | 210 kts | 0° |
| 2026-05-05 20:25 | 53.19235 | -2.61072 | 2999 ft | 210 kts | 0° |
| 2026-05-05 20:25 | 53.20211 | -2.60922 | 2993 ft | 208 kts | 21° |
| 2026-05-05 20:26 | 53.21286 | -2.59432 | 3002 ft | 206 kts | 64° |
| 2026-05-05 20:26 | 53.21585 | -2.57089 | 3009 ft | 209 kts | 80° |
| 2026-05-05 20:26 | 53.22103 | -2.54873 | 3007 ft | 207 kts | 54° |
| 2026-05-05 20:26 | 53.22985 | -2.52985 | 3004 ft | 205 kts | 52° |
| 2026-05-05 20:27 | 53.23868 | -2.51173 | 3003 ft | 203 kts | 52° |
| 2026-05-05 20:27 | 53.24763 | -2.49339 | 3030 ft | 194 kts | 52° |
| 2026-05-05 20:27 | 53.25587 | -2.47652 | 3006 ft | 186 kts | 53° |
| 2026-05-05 20:27 | 53.26407 | -2.45968 | 2883 ft | 186 kts | 52° |
| 2026-05-05 20:28 | 53.27212 | -2.44315 | 2677 ft | 180 kts | 52° |
| 2026-05-05 20:28 | 53.27974 | -2.42749 | 2444 ft | 169 kts | 53° |
| 2026-05-05 20:28 | 53.28694 | -2.41271 | 2211 ft | 159 kts | 52° |
| 2026-05-05 20:28 | 53.29373 | -2.39874 | 1985 ft | 150 kts | 51° |
| 2026-05-05 20:29 | 53.30003 | -2.38579 | 1824 ft | 138 kts | 52° |
| 2026-05-05 20:29 | 53.30605 | -2.37340 | 1613 ft | 137 kts | 52° |
| 2026-05-05 20:29 | 53.31201 | -2.36112 | 1425 ft | 135 kts | 53° |
| 2026-05-05 20:29 | 53.31795 | -2.34889 | 1226 ft | 136 kts | 52° |
| 2026-05-05 20:30 | 53.32394 | -2.33666 | 977 ft | 135 kts | 51° |
| 2026-05-05 20:30 | 53.33000 | -2.32442 | 758 ft | 137 kts | 51° |
| 2026-05-05 20:30 | 53.33594 | -2.31221 | 556 ft | 136 kts | 53° |
| 2026-05-05 20:30 | 53.34180 | -2.29969 | 408 ft | 135 kts | 50° |
| 2026-05-05 20:31 | 53.34775 | -2.28734 | 267 ft | 136 kts | 50° |
| 2026-05-05 20:31 | 53.35333 | -2.27577 | 243 ft | 111 kts | 51° |
| 2026-05-05 20:31 | 53.35704 | -2.26822 | 267 ft | 43 kts | 50° |
| 2026-05-05 20:31 | 53.35790 | -2.26674 | 270 ft | 11 kts | 13° |
| 2026-05-05 20:32 | 53.35857 | -2.26688 | 265 ft | 5 kts | 349° |
| 2026-05-05 20:32 | 53.35909 | -2.26733 | 257 ft | 13 kts | 304° |
| 2026-05-05 20:32 | 53.35885 | -2.26868 | 256 ft | 13 kts | 233° |
| 2026-05-05 20:32 | 53.35836 | -2.26984 | 256 ft | 12 kts | 237° |
| 2026-05-05 20:33 | 53.35793 | -2.27095 | 255 ft | 11 kts | 235° |
| 2026-05-05 20:33 | 53.35748 | -2.27192 | 255 ft | 10 kts | 231° |
| 2026-05-05 20:33 | 53.35705 | -2.27281 | 255 ft | 10 kts | 230° |
| 2026-05-05 20:33 | 53.35661 | -2.27368 | 252 ft | 12 kts | 230° |
| 2026-05-05 20:34 | 53.35626 | -2.27520 | 246 ft | 15 kts | 296° |
| 2026-05-05 20:34 | 53.35704 | -2.27623 | 248 ft | 14 kts | 335° |
| 2026-05-05 20:34 | 53.35779 | -2.27680 | 251 ft | 10 kts | 325° |
| 2026-05-05 20:34 | 53.35841 | -2.27733 | 253 ft | 11 kts | 0° |
| 2026-05-05 20:35 | 53.35922 | -2.27727 | 255 ft | 14 kts | 0° |
| 2026-05-05 20:35 | 53.36019 | -2.27794 | 255 ft | 16 kts | 324° |
| 2026-05-05 20:35 | 53.36123 | -2.27928 | 255 ft | 21 kts | 322° |
| 2026-05-05 20:35 | 53.36235 | -2.28100 | 255 ft | 21 kts | 315° |
| 2026-05-05 20:36 | 53.36330 | -2.28258 | 255 ft | 18 kts | 314° |
| 2026-05-05 20:36 | 53.36399 | -2.28400 | 255 ft | 14 kts | 297° |
| 2026-05-05 20:36 | 53.36444 | -2.28525 | 255 ft | 11 kts | 311° |
| 2026-05-05 20:36 | 53.36491 | -2.28607 | 255 ft | 10 kts | 315° |
| 2026-05-05 20:37 | 53.36539 | -2.28688 | 255 ft | 10 kts | 314° |
| 2026-05-05 20:37 | 53.36589 | -2.28771 | 255 ft | 10 kts | 318° |
| 2026-05-05 20:37 | 53.36660 | -2.28734 | 255 ft | 14 kts | 44° |
| 2026-05-05 20:37 | 53.36713 | -2.28670 | 255 ft | 7 kts | 359° |
| 2026-05-05 20:38 | 53.36739 | -2.28704 | 255 ft | 3 kts | 316° |
| 2026-05-05 20:38 | 53.36747 | -2.28718 | 255 ft | 0 kts | 316° |
| 2026-05-05 20:38 | 53.36749 | -2.28721 | 255 ft | 0 kts | 316° |
| 2026-05-05 20:38 | 53.36750 | -2.28721 | 255 ft | 1 kts | 316° |
| 2026-05-05 20:39 | 53.36759 | -2.28736 | 255 ft | 2 kts | 316° |
| 2026-05-05 20:39 | 53.36765 | -2.28746 | 255 ft | 2 kts | 315° |
| 2026-05-05 20:39 | 53.36766 | -2.28749 | 255 ft | 0 kts | 315° |